Time;durP1;ratioP1;P1;durP2;ratioP2;P2;SDS_P1;SDS_P2;PMS_P1;PMS_P2;Temp;Humidity;BMP_temperature;BMP_pressure;BME280_temperature;BME280_humidity;BME280_pressure;Samples;Min_cycle;Max_cycle;Signal;HPM_P1;HPM_P2
2024/03/31 00:01:17;;;;;;;25.80;22.83;;;;;;;;;;5045656;28;20055;-60
2024/03/31 00:03:43;;;;;;;22.05;19.67;;;;;;;;;;5040371;28;20013;-56
2024/03/31 00:06:09;;;;;;;24.83;21.67;;;;;;;;;;5045923;28;20447;-58
2024/03/31 00:08:34;;;;;;;24.25;21.77;;;;;;;;;;5039667;28;20023;-59
2024/03/31 00:11:00;;;;;;;23.90;21.50;;;;;;;;;;5026137;28;20014;-60
2024/03/31 00:13:26;;;;;;;23.02;20.67;;;;;;;;;;5035376;28;20022;-58
2024/03/31 00:15:51;;;;;;;21.73;19.40;;;;;;;;;;5025688;28;20033;-58
2024/03/31 00:18:16;;;;;;;27.80;23.27;;;;;;;;;;5035967;28;20024;-59
2024/03/31 00:20:42;;;;;;;24.17;20.00;;;;;;;;;;5045707;28;20032;-55
2024/03/31 00:23:07;;;;;;;27.38;23.83;;;;;;;;;;5042851;28;20037;-59
2024/03/31 00:25:32;;;;;;;25.67;22.45;;;;;;;;;;5040717;28;20037;-59
2024/03/31 00:27:58;;;;;;;23.10;20.75;;;;;;;;;;5043361;28;20679;-56
2024/03/31 00:30:23;;;;;;;22.17;19.88;;;;;;;;;;5039579;28;20029;-59
2024/03/31 00:32:49;;;;;;;27.35;22.20;;;;;;;;;;5048441;28;20078;-59
2024/03/31 00:35:15;;;;;;;24.42;21.83;;;;;;;;;;5027637;28;20042;-55
2024/03/31 00:37:40;;;;;;;29.92;21.52;;;;;;;;;;5029399;28;20033;-58
2024/03/31 00:40:05;;;;;;;25.20;22.10;;;;;;;;;;5028828;28;20021;-58
2024/03/31 00:42:31;;;;;;;23.80;19.73;;;;;;;;;;5029571;28;20021;-55
2024/03/31 00:44:56;;;;;;;27.45;23.40;;;;;;;;;;5028686;28;20029;-57
2024/03/31 00:47:21;;;;;;;21.33;19.08;;;;;;;;;;5029141;28;20365;-59
2024/03/31 00:49:47;;;;;;;25.17;19.50;;;;;;;;;;5042241;28;20029;-56
2024/03/31 00:52:12;;;;;;;21.92;18.42;;;;;;;;;;5049431;28;20059;-54
2024/03/31 00:54:41;;;;;;;24.63;21.35;;;;;;;;;;5034048;28;20048;-59
2024/03/31 00:57:06;;;;;;;23.35;20.08;;;;;;;;;;5046390;28;20109;-59
2024/03/31 00:59:32;;;;;;;22.30;19.95;;;;;;;;;;5047298;28;20124;-57
2024/03/31 01:01:57;;;;;;;23.17;19.67;;;;;;;;;;5048882;28;20029;-54
2024/03/31 01:04:22;;;;;;;22.83;20.02;;;;;;;;;;5046285;28;20075;-59
2024/03/31 01:06:47;;;;;;;28.23;24.30;;;;;;;;;;5049011;28;20172;-59
2024/03/31 01:09:14;;;;;;;22.85;20.38;;;;;;;;;;5055436;28;20033;-55
2024/03/31 01:11:40;;;;;;;24.15;20.30;;;;;;;;;;5028792;28;20069;-54
2024/03/31 01:14:05;;;;;;;22.17;19.58;;;;;;;;;;5029049;28;20096;-58
2024/03/31 01:16:31;;;;;;;25.90;23.15;;;;;;;;;;5053784;28;20033;-57
2024/03/31 01:18:56;;;;;;;22.73;20.33;;;;;;;;;;5036149;28;20127;-58
2024/03/31 01:21:25;;;;;;;23.27;20.83;;;;;;;;;;5048491;28;20472;-59
2024/03/31 01:23:55;;;;;;;23.95;21.40;;;;;;;;;;5038958;28;20049;-55
2024/03/31 01:26:20;;;;;;;24.40;21.52;;;;;;;;;;5028624;28;20426;-56
2024/03/31 01:28:45;;;;;;;27.30;23.02;;;;;;;;;;5028161;28;20033;-58
2024/03/31 01:31:11;;;;;;;24.35;21.35;;;;;;;;;;5045516;28;20123;-54
2024/03/31 01:33:36;;;;;;;26.15;22.63;;;;;;;;;;5040998;28;20104;-57
2024/03/31 01:36:02;;;;;;;23.75;21.25;;;;;;;;;;5028272;28;20034;-59
2024/03/31 01:38:27;;;;;;;22.20;19.88;;;;;;;;;;5031969;28;20025;-60
2024/03/31 01:40:52;;;;;;;23.58;20.95;;;;;;;;;;5047585;28;20116;-59
2024/03/31 01:43:18;;;;;;;20.70;18.42;;;;;;;;;;5045955;28;20045;-52
2024/03/31 01:45:43;;;;;;;25.60;20.88;;;;;;;;;;5046711;28;20430;-59
2024/03/31 01:48:08;;;;;;;24.55;20.80;;;;;;;;;;5045075;28;20105;-55
2024/03/31 01:50:34;;;;;;;25.17;21.67;;;;;;;;;;5027469;28;20033;-56
2024/03/31 01:52:59;;;;;;;23.48;21.13;;;;;;;;;;5027633;28;20018;-59
2024/03/31 01:55:24;;;;;;;25.30;21.98;;;;;;;;;;5047548;28;20111;-59
2024/03/31 01:57:49;;;;;;;24.00;21.17;;;;;;;;;;5046488;28;20035;-54
2024/03/31 02:00:15;;;;;;;22.77;20.08;;;;;;;;;;5042450;28;20113;-55
2024/03/31 02:02:40;;;;;;;28.33;22.00;;;;;;;;;;5027771;28;20029;-58
2024/03/31 02:05:06;;;;;;;32.55;23.90;;;;;;;;;;5044398;28;20459;-55
2024/03/31 02:07:31;;;;;;;22.55;20.08;;;;;;;;;;5047745;28;20063;-57
2024/03/31 02:09:56;;;;;;;22.48;20.17;;;;;;;;;;5045096;28;20017;-59
2024/03/31 02:12:21;;;;;;;23.30;20.25;;;;;;;;;;5047401;28;20059;-58
2024/03/31 02:14:47;;;;;;;25.83;21.02;;;;;;;;;;5041328;28;20021;-57
2024/03/31 02:17:12;;;;;;;27.65;23.48;;;;;;;;;;5046993;28;20465;-57
2024/03/31 02:19:37;;;;;;;24.33;20.63;;;;;;;;;;5045455;28;20075;-59
2024/03/31 02:22:03;;;;;;;25.08;22.45;;;;;;;;;;5045953;28;20358;-52
2024/03/31 02:24:28;;;;;;;22.00;19.25;;;;;;;;;;5033685;28;20060;-58
2024/03/31 02:26:53;;;;;;;34.13;30.70;;;;;;;;;;5027262;28;20064;-59
2024/03/31 02:29:19;;;;;;;27.83;23.38;;;;;;;;;;5027922;28;20388;-52
2024/03/31 02:31:44;;;;;;;32.05;26.15;;;;;;;;;;5046140;28;20037;-58
2024/03/31 02:34:10;;;;;;;26.13;22.90;;;;;;;;;;5044508;28;20025;-56
2024/03/31 02:36:35;;;;;;;38.50;21.65;;;;;;;;;;5047231;28;20021;-57
2024/03/31 02:39:00;;;;;;;24.85;22.30;;;;;;;;;;5036460;28;20025;-58
2024/03/31 02:41:26;;;;;;;21.38;19.05;;;;;;;;;;5027201;28;20040;-58
2024/03/31 02:43:51;;;;;;;22.98;20.60;;;;;;;;;;5026428;28;20040;-53
2024/03/31 02:46:16;;;;;;;29.52;23.40;;;;;;;;;;5027090;28;20510;-58
2024/03/31 02:48:42;;;;;;;30.92;22.58;;;;;;;;;;5025945;28;20028;-55
2024/03/31 02:51:07;;;;;;;23.52;20.85;;;;;;;;;;5037300;28;20384;-55
2024/03/31 02:53:32;;;;;;;27.60;24.63;;;;;;;;;;5038648;28;20064;-58
2024/03/31 02:55:57;;;;;;;25.67;23.05;;;;;;;;;;5026509;28;20072;-60
2024/03/31 02:58:23;;;;;;;29.02;23.67;;;;;;;;;;5026860;28;20142;-53
2024/03/31 03:00:48;;;;;;;30.40;22.58;;;;;;;;;;5023958;28;20080;-57
2024/03/31 03:03:13;;;;;;;34.58;23.38;;;;;;;;;;5037871;28;20514;-59
2024/03/31 03:05:39;;;;;;;24.52;21.13;;;;;;;;;;5042770;28;20110;-52
2024/03/31 03:08:04;;;;;;;30.17;25.75;;;;;;;;;;5025036;28;20118;-57
2024/03/31 03:10:29;;;;;;;29.35;21.52;;;;;;;;;;5023863;28;20021;-60
2024/03/31 03:12:55;;;;;;;24.75;21.83;;;;;;;;;;5023378;28;20029;-52
2024/03/31 03:15:20;;;;;;;27.02;21.13;;;;;;;;;;5028129;28;20625;-58
2024/03/31 03:17:46;;;;;;;24.67;21.73;;;;;;;;;;5033205;28;20528;-58
2024/03/31 03:20:12;;;;;;;23.92;19.67;;;;;;;;;;5042422;28;20884;-56
2024/03/31 03:22:37;;;;;;;27.00;22.33;;;;;;;;;;5043538;28;20475;-53
2024/03/31 03:25:02;;;;;;;26.90;23.70;;;;;;;;;;5042247;28;20577;-59
2024/03/31 03:27:28;;;;;;;26.20;22.60;;;;;;;;;;5042622;28;20025;-59
2024/03/31 03:29:53;;;;;;;23.35;20.83;;;;;;;;;;5031965;28;20271;-57
2024/03/31 03:32:18;;;;;;;24.30;20.92;;;;;;;;;;5046430;28;20017;-56
2024/03/31 03:34:44;;;;;;;25.02;21.33;;;;;;;;;;5029845;28;20551;-54
2024/03/31 03:37:09;;;;;;;25.95;23.05;;;;;;;;;;5025817;28;20025;-58
2024/03/31 03:39:35;;;;;;;34.25;22.48;;;;;;;;;;5026532;28;20061;-60
2024/03/31 03:42:01;;;;;;;26.35;22.50;;;;;;;;;;5026107;28;20076;-55
2024/03/31 03:44:26;;;;;;;22.15;19.25;;;;;;;;;;5037291;28;20048;-60
2024/03/31 03:46:51;;;;;;;27.35;24.40;;;;;;;;;;5045010;28;20075;-59
2024/03/31 03:49:17;;;;;;;24.00;20.67;;;;;;;;;;5032850;28;20075;-56
2024/03/31 03:51:42;;;;;;;29.52;23.58;;;;;;;;;;5024237;28;20419;-56
2024/03/31 03:54:07;;;;;;;25.60;21.13;;;;;;;;;;5025595;28;20021;-57
2024/03/31 03:56:33;;;;;;;24.25;21.38;;;;;;;;;;5025905;28;20025;-54
2024/03/31 03:58:58;;;;;;;21.30;18.90;;;;;;;;;;5028915;28;20076;-56
2024/03/31 04:01:23;;;;;;;23.30;20.80;;;;;;;;;;5025978;28;20033;-59
2024/03/31 04:03:49;;;;;;;23.65;20.13;;;;;;;;;;5034817;28;20056;-52
2024/03/31 04:06:14;;;;;;;24.23;19.58;;;;;;;;;;5030192;28;20095;-57
2024/03/31 04:08:40;;;;;;;24.50;21.77;;;;;;;;;;5030217;28;20049;-58
2024/03/31 04:11:05;;;;;;;25.48;21.63;;;;;;;;;;5033008;28;20105;-53
2024/03/31 04:13:30;;;;;;;24.88;21.98;;;;;;;;;;5034024;28;20482;-59
2024/03/31 04:15:59;;;;;;;24.20;21.55;;;;;;;;;;5050062;28;20037;-59
2024/03/31 04:18:24;;;;;;;24.08;21.63;;;;;;;;;;5046113;28;20016;-59
2024/03/31 04:20:50;;;;;;;38.35;23.40;;;;;;;;;;5029606;28;20021;-53
2024/03/31 04:23:15;;;;;;;24.95;21.42;;;;;;;;;;5029418;28;20025;-59
2024/03/31 04:25:41;;;;;;;27.52;22.45;;;;;;;;;;5029567;28;20059;-59
2024/03/31 04:28:06;;;;;;;25.38;20.08;;;;;;;;;;5030510;28;20025;-57
2024/03/31 04:30:38;;;;;;;23.80;21.15;;;;;;;;;;5049667;28;20033;-58
2024/03/31 04:33:03;;;;;;;24.15;21.50;;;;;;;;;;5037393;28;20044;-59
2024/03/31 04:35:33;;;;;;;27.27;23.23;;;;;;;;;;5013280;28;20492;-54
2024/03/31 04:37:59;;;;;;;25.52;22.92;;;;;;;;;;5046889;28;20036;-54
2024/03/31 04:40:25;;;;;;;22.98;20.58;;;;;;;;;;5049354;28;20111;-54
2024/03/31 04:42:51;;;;;;;26.75;22.92;;;;;;;;;;5047823;28;20471;-57
2024/03/31 04:45:17;;;;;;;25.05;20.60;;;;;;;;;;5029475;28;20366;-55
2024/03/31 04:47:42;;;;;;;26.35;20.73;;;;;;;;;;5029374;28;20033;-57
2024/03/31 04:50:07;;;;;;;28.27;21.90;;;;;;;;;;5027903;28;20403;-59
2024/03/31 04:52:33;;;;;;;27.38;22.58;;;;;;;;;;5029293;28;20076;-58
2024/03/31 04:54:58;;;;;;;21.90;19.45;;;;;;;;;;5044886;28;20116;-52
2024/03/31 04:57:23;;;;;;;24.33;21.77;;;;;;;;;;5048855;28;20494;-59
2024/03/31 04:59:49;;;;;;;25.73;21.55;;;;;;;;;;5031608;28;20021;-57
2024/03/31 05:02:14;;;;;;;22.63;19.33;;;;;;;;;;5030852;28;20071;-56
2024/03/31 05:04:39;;;;;;;26.90;23.88;;;;;;;;;;5033017;28;20570;-60
2024/03/31 05:07:04;;;;;;;24.40;21.65;;;;;;;;;;5029023;28;20033;-55
2024/03/31 05:09:32;;;;;;;25.52;22.33;;;;;;;;;;5029381;28;20025;-55
2024/03/31 05:11:57;;;;;;;22.27;20.00;;;;;;;;;;5028584;28;20057;-52
2024/03/31 05:14:23;;;;;;;25.73;22.98;;;;;;;;;;5032615;28;20068;-57
2024/03/31 05:16:48;;;;;;;26.45;22.88;;;;;;;;;;5027720;28;20044;-57
2024/03/31 05:19:13;;;;;;;28.25;23.55;;;;;;;;;;5028037;28;20022;-60
2024/03/31 05:21:39;;;;;;;31.08;24.80;;;;;;;;;;5028476;28;20026;-53
2024/03/31 05:24:04;;;;;;;25.42;22.48;;;;;;;;;;5035556;28;20037;-59
2024/03/31 05:26:29;;;;;;;28.10;25.30;;;;;;;;;;5047253;28;20111;-59
2024/03/31 05:28:55;;;;;;;24.48;21.73;;;;;;;;;;5046402;28;20033;-53
2024/03/31 05:31:20;;;;;;;23.38;21.05;;;;;;;;;;5048432;28;20103;-54
2024/03/31 05:33:45;;;;;;;25.95;22.30;;;;;;;;;;5046487;28;20503;-58
2024/03/31 05:36:10;;;;;;;27.52;23.75;;;;;;;;;;5046972;28;20029;-59
2024/03/31 05:38:36;;;;;;;22.48;19.98;;;;;;;;;;5046386;28;20021;-54
2024/03/31 05:41:02;;;;;;;24.83;21.92;;;;;;;;;;5048146;28;20037;-58
2024/03/31 05:43:27;;;;;;;23.50;19.25;;;;;;;;;;5036268;28;20031;-59
2024/03/31 05:45:53;;;;;;;24.48;21.85;;;;;;;;;;5062342;28;20037;-57
2024/03/31 05:48:18;;;;;;;25.65;22.92;;;;;;;;;;5043937;28;20499;-55
2024/03/31 05:50:43;;;;;;;25.58;22.33;;;;;;;;;;5028386;28;20061;-58
2024/03/31 05:53:09;;;;;;;27.35;24.35;;;;;;;;;;5028264;28;20451;-54
2024/03/31 05:55:34;;;;;;;30.08;24.02;;;;;;;;;;5028137;28;20566;-55
2024/03/31 05:57:59;;;;;;;45.90;26.05;;;;;;;;;;5028222;28;20029;-58
2024/03/31 06:00:25;;;;;;;24.60;22.00;;;;;;;;;;5028797;28;20017;-59
2024/03/31 06:02:50;;;;;;;31.50;24.17;;;;;;;;;;5031557;28;20025;-59
2024/03/31 06:05:16;;;;;;;24.70;21.58;;;;;;;;;;5047527;28;20070;-55
2024/03/31 06:07:45;;;;;;;25.30;21.73;;;;;;;;;;5047536;28;20032;-57
2024/03/31 06:10:10;;;;;;;23.88;21.30;;;;;;;;;;5027869;28;20039;-59
2024/03/31 06:12:35;;;;;;;25.80;21.17;;;;;;;;;;5027901;28;20021;-59
2024/03/31 06:15:01;;;;;;;22.52;20.17;;;;;;;;;;5049430;28;20045;-54
2024/03/31 06:17:26;;;;;;;24.58;21.20;;;;;;;;;;5027478;28;20111;-52
2024/03/31 06:19:51;;;;;;;25.42;22.70;;;;;;;;;;5035673;28;20503;-58
2024/03/31 06:22:17;;;;;;;20.02;17.27;;;;;;;;;;5047299;28;20491;-54
2024/03/31 06:24:42;;;;;;;23.02;20.27;;;;;;;;;;5030767;28;20056;-57
2024/03/31 06:27:07;;;;;;;26.08;21.00;;;;;;;;;;5027217;28;20539;-58
2024/03/31 06:29:33;;;;;;;25.27;21.25;;;;;;;;;;5026738;28;20032;-55
2024/03/31 06:31:58;;;;;;;22.83;19.63;;;;;;;;;;5045652;28;20041;-56
2024/03/31 06:34:23;;;;;;;25.17;22.55;;;;;;;;;;5037160;28;20175;-57
2024/03/31 06:36:48;;;;;;;24.40;20.85;;;;;;;;;;5046519;28;20544;-58
2024/03/31 06:39:14;;;;;;;25.38;20.98;;;;;;;;;;5035158;28;20362;-52
2024/03/31 06:41:39;;;;;;;25.20;20.77;;;;;;;;;;5026844;28;20527;-56
2024/03/31 06:44:04;;;;;;;32.75;24.33;;;;;;;;;;5044986;28;20021;-58
2024/03/31 06:46:30;;;;;;;24.90;22.25;;;;;;;;;;5046775;28;20025;-56
2024/03/31 06:48:55;;;;;;;22.55;20.25;;;;;;;;;;5037494;28;20098;-57
2024/03/31 06:51:20;;;;;;;23.98;21.45;;;;;;;;;;5041705;28;20562;-59
2024/03/31 06:53:47;;;;;;;32.30;22.33;;;;;;;;;;5041276;28;20538;-53
2024/03/31 06:56:13;;;;;;;29.00;22.77;;;;;;;;;;5044291;28;20086;-55
2024/03/31 06:58:38;;;;;;;25.80;22.15;;;;;;;;;;5032571;28;20430;-53
2024/03/31 07:01:03;;;;;;;27.50;23.13;;;;;;;;;;5026724;28;20435;-55
2024/03/31 07:03:28;;;;;;;25.85;21.55;;;;;;;;;;5030058;28;20059;-59
2024/03/31 07:05:54;;;;;;;20.35;17.95;;;;;;;;;;5044421;28;20474;-56
2024/03/31 07:08:19;;;;;;;27.13;20.90;;;;;;;;;;5044310;28;20544;-56
2024/03/31 07:10:44;;;;;;;28.00;20.95;;;;;;;;;;5027576;28;20519;-58
2024/03/31 07:13:10;;;;;;;28.23;23.38;;;;;;;;;;5037283;28;20082;-55
2024/03/31 07:15:35;;;;;;;24.23;21.73;;;;;;;;;;5046308;28;20059;-53
2024/03/31 07:18:18;;;;;;;24.85;22.25;;;;;;;;;;5043012;28;20025;-58
2024/03/31 07:20:44;;;;;;;22.98;18.77;;;;;;;;;;5026515;28;20108;-57
2024/03/31 07:23:09;;;;;;;37.00;22.27;;;;;;;;;;5025973;28;20124;-54
2024/03/31 07:25:36;;;;;;;22.73;19.80;;;;;;;;;;5028254;28;20060;-59
2024/03/31 07:28:01;;;;;;;25.30;22.00;;;;;;;;;;5025029;28;20482;-58
2024/03/31 07:30:27;;;;;;;32.10;20.90;;;;;;;;;;5045959;28;20108;-57
2024/03/31 07:32:52;;;;;;;25.95;23.08;;;;;;;;;;5034999;28;20055;-54
2024/03/31 07:35:18;;;;;;;25.23;22.30;;;;;;;;;;5026033;28;20117;-59
2024/03/31 07:37:43;;;;;;;34.47;25.52;;;;;;;;;;5026080;28;20018;-59
2024/03/31 07:40:09;;;;;;;25.60;21.73;;;;;;;;;;5025294;28;20030;-58
2024/03/31 07:42:34;;;;;;;36.78;23.98;;;;;;;;;;5026206;28;20017;-54
2024/03/31 07:44:59;;;;;;;27.17;21.77;;;;;;;;;;5025965;28;20687;-58
2024/03/31 07:47:24;;;;;;;31.25;24.08;;;;;;;;;;5025685;28;20535;-59
2024/03/31 07:49:50;;;;;;;27.05;21.02;;;;;;;;;;5041066;28;20082;-55
2024/03/31 07:52:15;;;;;;;24.80;19.38;;;;;;;;;;5045833;28;20028;-56
2024/03/31 07:54:40;;;;;;;25.77;21.02;;;;;;;;;;5043761;28;20025;-59
2024/03/31 07:57:05;;;;;;;28.77;20.27;;;;;;;;;;5045987;28;20383;-60
2024/03/31 07:59:31;;;;;;;19.13;17.05;;;;;;;;;;5040100;28;20102;-56
2024/03/31 08:01:57;;;;;;;29.48;21.80;;;;;;;;;;5045851;28;20030;-56
2024/03/31 08:04:22;;;;;;;22.95;20.42;;;;;;;;;;5032927;28;20034;-58
2024/03/31 08:06:47;;;;;;;22.48;19.25;;;;;;;;;;5028572;28;20032;-58
2024/03/31 08:09:13;;;;;;;20.83;18.67;;;;;;;;;;5036034;28;20028;-56
2024/03/31 08:11:38;;;;;;;23.02;20.65;;;;;;;;;;5046123;28;20032;-59
2024/03/31 08:14:04;;;;;;;21.50;19.38;;;;;;;;;;5035133;28;20029;-58
2024/03/31 08:16:29;;;;;;;24.77;19.05;;;;;;;;;;5023323;28;20049;-53
2024/03/31 08:18:57;;;;;;;21.90;19.77;;;;;;;;;;5032949;28;20052;-57
2024/03/31 08:21:22;;;;;;;21.38;19.27;;;;;;;;;;5060014;28;20044;-54
2024/03/31 08:23:47;;;;;;;24.42;19.88;;;;;;;;;;5040202;28;20065;-59
2024/03/31 08:26:12;;;;;;;22.63;19.58;;;;;;;;;;5025884;28;20041;-59
2024/03/31 08:28:38;;;;;;;25.63;18.13;;;;;;;;;;5025243;28;20117;-53
2024/03/31 08:31:03;;;;;;;21.00;16.88;;;;;;;;;;5032477;28;20017;-53
2024/03/31 08:33:28;;;;;;;20.80;16.38;;;;;;;;;;5043503;28;20021;-60
2024/03/31 08:35:54;;;;;;;20.77;17.33;;;;;;;;;;5045901;28;20532;-57
2024/03/31 08:38:19;;;;;;;40.13;16.33;;;;;;;;;;5040471;28;20262;-54
2024/03/31 08:41:02;;;;;;;28.52;20.20;;;;;;;;;;5029473;28;20052;-57
2024/03/31 08:43:30;;;;;;;24.52;18.95;;;;;;;;;;5025487;28;20088;-57
2024/03/31 08:45:56;;;;;;;27.53;21.20;;;;;;;;;;5043820;28;20108;-58
2024/03/31 08:48:23;;;;;;;43.88;30.90;;;;;;;;;;5025868;28;20108;-57
2024/03/31 08:50:48;;;;;;;35.75;24.52;;;;;;;;;;5029320;28;20044;-51
2024/03/31 08:53:15;;;;;;;48.60;29.98;;;;;;;;;;5033031;28;20037;-56
2024/03/31 08:55:41;;;;;;;37.22;24.55;;;;;;;;;;5032134;28;20045;-58
2024/03/31 08:58:07;;;;;;;28.20;22.60;;;;;;;;;;5032609;28;20676;-54
2024/03/31 09:00:33;;;;;;;33.22;26.88;;;;;;;;;;5035226;28;20025;-55
2024/03/31 09:02:59;;;;;;;37.22;23.77;;;;;;;;;;5042109;28;20020;-57
2024/03/31 09:05:24;;;;;;;30.02;25.35;;;;;;;;;;5039325;28;20309;-56
2024/03/31 09:07:49;;;;;;;47.75;28.75;;;;;;;;;;5040122;28;20074;-58
2024/03/31 09:10:15;;;;;;;36.20;28.70;;;;;;;;;;5041748;28;20486;-57
2024/03/31 09:12:42;;;;;;;59.15;26.73;;;;;;;;;;5032526;28;20041;-53
2024/03/31 09:15:07;;;;;;;39.92;31.27;;;;;;;;;;5035256;28;20032;-54
2024/03/31 09:17:33;;;;;;;33.55;28.50;;;;;;;;;;5032775;28;20029;-59
2024/03/31 09:20:00;;;;;;;29.60;24.88;;;;;;;;;;5034074;28;20870;-56
2024/03/31 09:22:26;;;;;;;28.17;24.33;;;;;;;;;;5034519;28;20037;-59
2024/03/31 09:24:51;;;;;;;43.47;24.90;;;;;;;;;;5041969;28;20053;-51
2024/03/31 09:27:16;;;;;;;40.05;31.00;;;;;;;;;;5036088;28;20100;-56
2024/03/31 09:29:42;;;;;;;31.52;25.10;;;;;;;;;;5033621;28;20017;-58
2024/03/31 09:32:09;;;;;;;49.92;23.58;;;;;;;;;;5034186;28;20030;-54
2024/03/31 09:34:35;;;;;;;32.33;24.33;;;;;;;;;;5036784;28;20083;-58
2024/03/31 09:37:01;;;;;;;35.28;26.48;;;;;;;;;;5052423;28;20045;-53
2024/03/31 09:39:26;;;;;;;30.60;27.13;;;;;;;;;;5040565;28;20025;-57
2024/03/31 09:41:53;;;;;;;32.75;29.25;;;;;;;;;;5036521;28;20041;-58
2024/03/31 09:44:18;;;;;;;27.65;24.80;;;;;;;;;;5038718;28;20391;-56
2024/03/31 09:46:44;;;;;;;29.85;26.50;;;;;;;;;;5036464;28;20017;-51
2024/03/31 09:49:10;;;;;;;28.33;25.25;;;;;;;;;;5041768;28;20049;-58
2024/03/31 09:51:39;;;;;;;28.63;21.27;;;;;;;;;;5044634;28;20017;-56
2024/03/31 09:54:23;;;;;;;31.30;22.48;;;;;;;;;;5038822;28;20025;-51
2024/03/31 09:57:03;;;;;;;32.67;23.23;;;;;;;;;;5042060;28;20487;-55
2024/03/31 09:59:29;;;;;;;41.70;23.40;;;;;;;;;;5058311;28;20526;-52
2024/03/31 10:01:55;;;;;;;33.78;23.48;;;;;;;;;;5044634;28;20029;-51
2024/03/31 10:04:41;;;;;;;25.75;20.80;;;;;;;;;;5047081;28;20017;-57
2024/03/31 10:07:07;;;;;;;32.67;20.75;;;;;;;;;;5004488;28;20112;-55
2024/03/31 10:09:33;;;;;;;29.88;22.42;;;;;;;;;;5004530;28;20543;-55
2024/03/31 10:12:00;;;;;;;23.60;19.80;;;;;;;;;;5004446;28;20038;-57
2024/03/31 10:14:26;;;;;;;31.75;22.38;;;;;;;;;;5003460;28;20038;-56
2024/03/31 10:16:52;;;;;;;32.70;25.45;;;;;;;;;;5001540;28;20072;-57
2024/03/31 10:19:18;;;;;;;31.60;20.98;;;;;;;;;;5004375;28;20045;-58
2024/03/31 10:21:43;;;;;;;25.27;19.88;;;;;;;;;;5003819;28;20022;-57
2024/03/31 10:24:10;;;;;;;36.92;22.63;;;;;;;;;;5001147;28;20049;-57
2024/03/31 10:26:36;;;;;;;42.67;25.90;;;;;;;;;;5002043;28;20029;-53
2024/03/31 10:29:02;;;;;;;31.92;19.67;;;;;;;;;;4992755;28;20034;-57
2024/03/31 10:31:28;;;;;;;28.77;19.45;;;;;;;;;;5003386;28;20496;-57
2024/03/31 10:33:53;;;;;;;28.92;19.55;;;;;;;;;;4954879;28;20061;-53
2024/03/31 10:36:19;;;;;;;33.75;22.67;;;;;;;;;;5003025;28;20037;-53
2024/03/31 10:38:44;;;;;;;53.97;27.00;;;;;;;;;;5002522;28;20037;-53
2024/03/31 10:41:10;;;;;;;44.38;23.25;;;;;;;;;;5005057;28;20026;-57
2024/03/31 10:43:36;;;;;;;48.83;21.20;;;;;;;;;;5009085;28;20491;-58
2024/03/31 10:46:01;;;;;;;26.73;22.00;;;;;;;;;;5028768;28;20115;-55
2024/03/31 10:48:27;;;;;;;28.95;21.33;;;;;;;;;;5041104;28;20022;-55
2024/03/31 10:50:52;;;;;;;35.17;22.45;;;;;;;;;;5042498;28;20033;-55
2024/03/31 10:53:26;;;;;;;24.45;20.52;;;;;;;;;;5044626;28;20035;-57
2024/03/31 10:55:52;;;;;;;31.60;18.45;;;;;;;;;;5044600;28;20045;-59
2024/03/31 10:58:17;;;;;;;21.00;16.15;;;;;;;;;;5045017;28;20029;-58
2024/03/31 11:00:43;;;;;;;38.20;22.73;;;;;;;;;;5045596;28;20040;-55
2024/03/31 11:03:09;;;;;;;42.78;19.50;;;;;;;;;;5043240;28;20029;-57
2024/03/31 11:05:34;;;;;;;22.00;17.67;;;;;;;;;;5026826;28;20494;-54
2024/03/31 11:08:02;;;;;;;25.33;19.98;;;;;;;;;;5026054;28;20025;-54
2024/03/31 11:10:28;;;;;;;42.50;21.95;;;;;;;;;;5030167;28;20099;-57
2024/03/31 11:12:53;;;;;;;26.02;23.25;;;;;;;;;;5026441;28;20065;-49
2024/03/31 11:15:19;;;;;;;54.08;26.52;;;;;;;;;;5040414;28;20520;-55
2024/03/31 11:17:45;;;;;;;23.70;17.98;;;;;;;;;;5045560;28;20449;-58
2024/03/31 11:20:11;;;;;;;39.95;22.20;;;;;;;;;;5044716;28;20033;-54
2024/03/31 11:22:36;;;;;;;39.33;22.30;;;;;;;;;;5044092;28;20029;-53
2024/03/31 11:25:03;;;;;;;31.35;19.23;;;;;;;;;;5041034;28;20049;-56
2024/03/31 11:27:28;;;;;;;37.60;21.02;;;;;;;;;;5046289;28;20478;-56
2024/03/31 11:29:54;;;;;;;50.72;22.42;;;;;;;;;;5028733;28;20036;-52
2024/03/31 11:32:19;;;;;;;38.88;20.02;;;;;;;;;;5034411;28;20388;-53
2024/03/31 11:34:45;;;;;;;38.38;23.17;;;;;;;;;;5044308;28;20021;-56
2024/03/31 11:37:11;;;;;;;48.30;18.98;;;;;;;;;;5046397;28;20505;-57
2024/03/31 11:39:36;;;;;;;34.47;16.25;;;;;;;;;;5031396;28;20030;-52
2024/03/31 11:42:02;;;;;;;30.88;19.85;;;;;;;;;;5026541;28;20062;-57
2024/03/31 11:44:31;;;;;;;36.92;19.35;;;;;;;;;;5025948;28;20052;-55
2024/03/31 11:46:57;;;;;;;24.92;18.20;;;;;;;;;;5039120;28;20029;-57
2024/03/31 11:49:22;;;;;;;46.60;23.63;;;;;;;;;;5044313;28;20037;-53
2024/03/31 11:51:47;;;;;;;33.67;20.15;;;;;;;;;;5043764;28;20636;-55
2024/03/31 11:54:12;;;;;;;32.28;18.25;;;;;;;;;;5032845;28;20113;-57
2024/03/31 11:56:38;;;;;;;33.72;21.13;;;;;;;;;;5026134;28;20104;-56
2024/03/31 11:59:16;;;;;;;36.65;18.60;;;;;;;;;;5025513;28;20022;-57
2024/03/31 12:01:42;;;;;;;39.45;18.23;;;;;;;;;;5025225;28;20037;-58
2024/03/31 12:04:13;;;;;;;44.25;20.38;;;;;;;;;;5026282;28;20021;-56
2024/03/31 12:06:38;;;;;;;32.53;22.08;;;;;;;;;;5025939;28;20392;-54
2024/03/31 12:09:04;;;;;;;56.05;25.58;;;;;;;;;;5038027;28;20037;-57
2024/03/31 12:11:29;;;;;;;50.38;21.95;;;;;;;;;;5045150;28;20430;-55
2024/03/31 12:13:55;;;;;;;36.55;24.27;;;;;;;;;;5044262;28;20418;-57
2024/03/31 12:16:21;;;;;;;61.67;48.50;;;;;;;;;;5045993;28;20064;-57
2024/03/31 12:18:49;;;;;;;31.23;21.77;;;;;;;;;;5038093;28;20045;-53
2024/03/31 12:21:18;;;;;;;39.72;17.77;;;;;;;;;;5026138;28;20020;-56
2024/03/31 12:23:43;;;;;;;28.73;20.88;;;;;;;;;;5025929;28;20079;-56
2024/03/31 12:26:09;;;;;;;42.63;21.08;;;;;;;;;;5028648;28;20064;-56
2024/03/31 12:28:34;;;;;;;29.63;15.88;;;;;;;;;;5029887;28;20025;-56
2024/03/31 12:30:59;;;;;;;37.17;23.30;;;;;;;;;;5029472;28;20029;-56
2024/03/31 12:33:25;;;;;;;30.10;21.23;;;;;;;;;;5044397;28;20471;-58
2024/03/31 12:35:50;;;;;;;42.08;18.38;;;;;;;;;;5029600;28;20536;-54
2024/03/31 12:38:16;;;;;;;25.70;20.13;;;;;;;;;;5031586;28;20022;-56
2024/03/31 12:40:41;;;;;;;65.05;24.50;;;;;;;;;;5047211;28;20502;-51
2024/03/31 12:43:06;;;;;;;43.70;23.17;;;;;;;;;;5047165;28;20061;-56
2024/03/31 12:45:32;;;;;;;31.67;18.20;;;;;;;;;;5049630;28;20044;-56
2024/03/31 12:48:01;;;;;;;28.88;17.90;;;;;;;;;;5044656;28;20033;-53
2024/03/31 12:50:27;;;;;;;45.90;20.92;;;;;;;;;;5035478;28;20021;-57
2024/03/31 12:52:52;;;;;;;51.70;21.83;;;;;;;;;;5046943;28;20577;-51
2024/03/31 12:55:18;;;;;;;48.00;20.30;;;;;;;;;;5034649;28;20648;-55
2024/03/31 12:57:43;;;;;;;34.65;20.35;;;;;;;;;;5029668;28;20022;-56
2024/03/31 13:00:09;;;;;;;35.60;20.05;;;;;;;;;;5028751;28;20371;-55
2024/03/31 13:02:40;;;;;;;34.20;20.55;;;;;;;;;;5029239;28;20491;-55
2024/03/31 13:05:06;;;;;;;32.47;21.15;;;;;;;;;;5031059;28;20468;-57
2024/03/31 13:07:31;;;;;;;37.15;22.88;;;;;;;;;;5029138;28;20100;-56
2024/03/31 13:10:03;;;;;;;35.00;23.25;;;;;;;;;;5044983;28;20021;-55
2024/03/31 13:12:29;;;;;;;47.53;22.95;;;;;;;;;;5043355;28;20064;-55
2024/03/31 13:14:55;;;;;;;35.85;23.65;;;;;;;;;;5041901;28;20045;-51
2024/03/31 13:17:20;;;;;;;31.35;23.10;;;;;;;;;;5048639;28;20043;-56
2024/03/31 13:19:45;;;;;;;47.88;22.73;;;;;;;;;;5046582;28;20037;-58
2024/03/31 13:22:11;;;;;;;49.15;24.40;;;;;;;;;;5048745;28;20031;-58
2024/03/31 13:24:36;;;;;;;68.13;22.60;;;;;;;;;;5046045;28;20095;-57
2024/03/31 13:27:02;;;;;;;40.03;23.70;;;;;;;;;;5048638;28;20087;-57
2024/03/31 13:29:27;;;;;;;41.63;20.95;;;;;;;;;;5046499;28;20025;-56
2024/03/31 13:31:53;;;;;;;67.80;24.90;;;;;;;;;;5046975;28;20075;-58
2024/03/31 13:34:18;;;;;;;48.28;20.63;;;;;;;;;;5046642;28;20470;-55
2024/03/31 13:36:45;;;;;;;32.25;21.30;;;;;;;;;;5047640;28;20025;-55
2024/03/31 13:39:10;;;;;;;36.38;21.10;;;;;;;;;;5032068;28;20036;-56
2024/03/31 13:41:36;;;;;;;37.35;21.15;;;;;;;;;;5028474;28;20387;-57
2024/03/31 13:44:01;;;;;;;44.00;25.02;;;;;;;;;;5028027;28;20075;-58
2024/03/31 13:46:26;;;;;;;38.30;19.58;;;;;;;;;;5028471;28;20029;-55
2024/03/31 13:48:51;;;;;;;54.85;24.10;;;;;;;;;;5035213;28;20092;-58
2024/03/31 13:51:17;;;;;;;56.00;23.90;;;;;;;;;;5048293;28;20078;-59
2024/03/31 13:53:42;;;;;;;50.50;20.20;;;;;;;;;;5041558;28;20501;-55
2024/03/31 13:56:07;;;;;;;29.30;24.15;;;;;;;;;;5038348;28;20041;-57
2024/03/31 13:58:33;;;;;;;34.70;22.13;;;;;;;;;;5046016;28;20142;-56
2024/03/31 14:00:58;;;;;;;47.80;21.73;;;;;;;;;;5048182;28;20434;-53
2024/03/31 14:03:23;;;;;;;36.90;23.00;;;;;;;;;;5045768;28;20016;-57
2024/03/31 14:05:49;;;;;;;26.80;23.55;;;;;;;;;;5031128;28;20505;-58
2024/03/31 14:08:14;;;;;;;48.00;22.48;;;;;;;;;;5038837;28;20017;-57